sensor_id;sensor_type;location;lat;lon;timestamp;temperature;humidity
13174;DHT22;6652;48.802;9.190;2023-03-01T00:02:22;-0.80;99.90
13174;DHT22;6652;48.802;9.190;2023-03-01T00:04:48;-0.70;99.90
13174;DHT22;6652;48.802;9.190;2023-03-01T00:07:15;-0.80;99.90
13174;DHT22;6652;48.802;9.190;2023-03-01T00:09:42;0.10;99.90
13174;DHT22;6652;48.802;9.190;2023-03-01T00:12:12;-0.80;99.90
13174;DHT22;6652;48.802;9.190;2023-03-01T00:14:39;-0.80;99.90
13174;DHT22;6652;48.802;9.190;2023-03-01T00:17:06;-0.90;99.90
13174;DHT22;6652;48.802;9.190;2023-03-01T00:19:33;-0.90;99.90
13174;DHT22;6652;48.802;9.190;2023-03-01T00:22:00;-0.90;99.90
13174;DHT22;6652;48.802;9.190;2023-03-01T00:24:27;-0.90;99.90
13174;DHT22;6652;48.802;9.190;2023-03-01T00:26:54;-0.60;99.90
13174;DHT22;6652;48.802;9.190;2023-03-01T00:29:24;-0.80;99.90
13174;DHT22;6652;48.802;9.190;2023-03-01T00:31:51;-1.00;99.90
13174;DHT22;6652;48.802;9.190;2023-03-01T00:34:18;-1.00;99.90
13174;DHT22;6652;48.802;9.190;2023-03-01T00:36:45;-1.00;99.90
13174;DHT22;6652;48.802;9.190;2023-03-01T00:39:13;-1.00;99.90
13174;DHT22;6652;48.802;9.190;2023-03-01T00:41:41;-1.10;99.90
13174;DHT22;6652;48.802;9.190;2023-03-01T00:44:08;-1.00;99.90
13174;DHT22;6652;48.802;9.190;2023-03-01T00:46:36;-0.50;99.90
13174;DHT22;6652;48.802;9.190;2023-03-01T00:49:03;-1.10;99.90
13174;DHT22;6652;48.802;9.190;2023-03-01T00:51:30;-0.40;99.90
13174;DHT22;6652;48.802;9.190;2023-03-01T00:54:00;-1.10;99.90
13174;DHT22;6652;48.802;9.190;2023-03-01T00:56:27;-1.10;99.90
13174;DHT22;6652;48.802;9.190;2023-03-01T00:58:55;-1.00;99.90
13174;DHT22;6652;48.802;9.190;2023-03-01T01:01:24;-1.20;99.90
13174;DHT22;6652;48.802;9.190;2023-03-01T01:04:06;-1.10;99.90
13174;DHT22;6652;48.802;9.190;2023-03-01T01:06:35;-1.20;99.90
13174;DHT22;6652;48.802;9.190;2023-03-01T01:09:03;-1.20;99.90
13174;DHT22;6652;48.802;9.190;2023-03-01T01:11:31;-1.20;99.90
13174;DHT22;6652;48.802;9.190;2023-03-01T01:13:58;-1.20;99.90
13174;DHT22;6652;48.802;9.190;2023-03-01T01:16:26;-1.20;99.90
13174;DHT22;6652;48.802;9.190;2023-03-01T01:18:54;-2.30;99.90
13174;DHT22;6652;48.802;9.190;2023-03-01T01:21:24;-1.30;99.90
13174;DHT22;6652;48.802;9.190;2023-03-01T01:23:51;-1.30;99.90
13174;DHT22;6652;48.802;9.190;2023-03-01T01:26:20;-1.20;99.90
13174;DHT22;6652;48.802;9.190;2023-03-01T01:28:47;-1.30;99.90
13174;DHT22;6652;48.802;9.190;2023-03-01T01:31:14;-1.30;99.90
13174;DHT22;6652;48.802;9.190;2023-03-01T01:33:42;-1.30;99.90
13174;DHT22;6652;48.802;9.190;2023-03-01T01:36:09;-1.30;99.90
13174;DHT22;6652;48.802;9.190;2023-03-01T01:38:38;-1.30;99.90
13174;DHT22;6652;48.802;9.190;2023-03-01T01:41:05;-1.40;99.90
13174;DHT22;6652;48.802;9.190;2023-03-01T01:43:34;-1.30;99.90
13174;DHT22;6652;48.802;9.190;2023-03-01T01:46:04;-1.30;99.90
13174;DHT22;6652;48.802;9.190;2023-03-01T01:48:37;-1.30;99.90
13174;DHT22;6652;48.802;9.190;2023-03-01T01:51:10;-1.30;99.90
13174;DHT22;6652;48.802;9.190;2023-03-01T01:53:40;-1.20;99.90
13174;DHT22;6652;48.802;9.190;2023-03-01T01:56:10;-1.10;99.90
13174;DHT22;6652;48.802;9.190;2023-03-01T01:58:38;-1.00;99.90
13174;DHT22;6652;48.802;9.190;2023-03-01T02:01:05;-1.00;99.90
13174;DHT22;6652;48.802;9.190;2023-03-01T02:03:34;-0.90;99.90
13174;DHT22;6652;48.802;9.190;2023-03-01T02:06:06;0.20;99.90
13174;DHT22;6652;48.802;9.190;2023-03-01T02:08:38;-0.70;99.90
13174;DHT22;6652;48.802;9.190;2023-03-01T02:11:08;-0.60;99.90
13174;DHT22;6652;48.802;9.190;2023-03-01T02:13:35;-0.60;99.90
13174;DHT22;6652;48.802;9.190;2023-03-01T02:16:03;-0.50;99.90
13174;DHT22;6652;48.802;9.190;2023-03-01T02:18:31;-0.50;99.90
13174;DHT22;6652;48.802;9.190;2023-03-01T02:21:08;0.20;99.90
13174;DHT22;6652;48.802;9.190;2023-03-01T02:23:40;-0.40;99.90
13174;DHT22;6652;48.802;9.190;2023-03-01T02:26:13;-0.40;99.90
13174;DHT22;6652;48.802;9.190;2023-03-01T02:28:43;-0.30;99.90
13174;DHT22;6652;48.802;9.190;2023-03-01T02:31:13;-0.20;99.90
13174;DHT22;6652;48.802;9.190;2023-03-01T02:33:58;-0.20;99.90
13174;DHT22;6652;48.802;9.190;2023-03-01T02:36:30;-0.20;99.90
13174;DHT22;6652;48.802;9.190;2023-03-01T02:38:58;-0.20;99.90
13174;DHT22;6652;48.802;9.190;2023-03-01T02:41:28;-0.10;99.90
13174;DHT22;6652;48.802;9.190;2023-03-01T02:43:57;-0.10;99.90
13174;DHT22;6652;48.802;9.190;2023-03-01T02:46:25;0.50;99.90
13174;DHT22;6652;48.802;9.190;2023-03-01T02:48:54;-0.10;99.90
13174;DHT22;6652;48.802;9.190;2023-03-01T02:51:38;0.00;99.90
13174;DHT22;6652;48.802;9.190;2023-03-01T02:54:17;0.00;99.90
13174;DHT22;6652;48.802;9.190;2023-03-01T02:56:48;0.00;99.90
13174;DHT22;6652;48.802;9.190;2023-03-01T02:59:19;0.10;99.90
13174;DHT22;6652;48.802;9.190;2023-03-01T03:01:46;0.10;99.90
13174;DHT22;6652;48.802;9.190;2023-03-01T03:04:15;0.10;99.90
13174;DHT22;6652;48.802;9.190;2023-03-01T03:06:43;0.10;99.90
13174;DHT22;6652;48.802;9.190;2023-03-01T03:09:11;0.10;99.90
13174;DHT22;6652;48.802;9.190;2023-03-01T03:11:38;0.50;99.90
13174;DHT22;6652;48.802;9.190;2023-03-01T03:14:06;0.10;99.90
13174;DHT22;6652;48.802;9.190;2023-03-01T03:16:40;0.10;99.90
13174;DHT22;6652;48.802;9.190;2023-03-01T03:19:07;0.10;99.90
13174;DHT22;6652;48.802;9.190;2023-03-01T03:21:34;0.10;99.90
13174;DHT22;6652;48.802;9.190;2023-03-01T03:24:01;0.10;99.90
13174;DHT22;6652;48.802;9.190;2023-03-01T03:26:28;0.10;99.90
13174;DHT22;6652;48.802;9.190;2023-03-01T03:28:55;0.20;99.90
13174;DHT22;6652;48.802;9.190;2023-03-01T03:31:22;0.20;99.90
13174;DHT22;6652;48.802;9.190;2023-03-01T03:33:51;0.20;99.90
13174;DHT22;6652;48.802;9.190;2023-03-01T03:36:19;0.30;99.90
13174;DHT22;6652;48.802;9.190;2023-03-01T03:38:46;0.30;99.90
13174;DHT22;6652;48.802;9.190;2023-03-01T03:41:14;0.30;99.90
13174;DHT22;6652;48.802;9.190;2023-03-01T03:43:42;1.50;99.90
13174;DHT22;6652;48.802;9.190;2023-03-01T03:46:10;0.30;99.90
13174;DHT22;6652;48.802;9.190;2023-03-01T03:48:39;0.40;99.90
13174;DHT22;6652;48.802;9.190;2023-03-01T03:51:10;0.40;99.90
13174;DHT22;6652;48.802;9.190;2023-03-01T03:53:37;0.40;99.90
13174;DHT22;6652;48.802;9.190;2023-03-01T03:56:04;0.40;99.90
13174;DHT22;6652;48.802;9.190;2023-03-01T03:58:31;0.40;99.90
13174;DHT22;6652;48.802;9.190;2023-03-01T04:00:59;0.40;99.90
13174;DHT22;6652;48.802;9.190;2023-03-01T04:03:28;0.80;99.90
13174;DHT22;6652;48.802;9.190;2023-03-01T04:05:57;0.50;99.90
13174;DHT22;6652;48.802;9.190;2023-03-01T04:08:27;1.30;99.90
13174;DHT22;6652;48.802;9.190;2023-03-01T04:10:58;0.50;99.90
13174;DHT22;6652;48.802;9.190;2023-03-01T04:13:46;0.50;99.90
13174;DHT22;6652;48.802;9.190;2023-03-01T04:16:13;0.60;99.90
13174;DHT22;6652;48.802;9.190;2023-03-01T04:18:39;0.50;99.90
13174;DHT22;6652;48.802;9.190;2023-03-01T04:21:06;0.70;99.90
13174;DHT22;6652;48.802;9.190;2023-03-01T04:23:34;0.60;99.90
13174;DHT22;6652;48.802;9.190;2023-03-01T04:26:01;0.60;99.90
13174;DHT22;6652;48.802;9.190;2023-03-01T04:28:30;0.60;99.90
13174;DHT22;6652;48.802;9.190;2023-03-01T04:31:02;0.60;99.90
13174;DHT22;6652;48.802;9.190;2023-03-01T04:33:33;0.60;99.90
13174;DHT22;6652;48.802;9.190;2023-03-01T04:35:59;0.60;99.90
13174;DHT22;6652;48.802;9.190;2023-03-01T04:38:30;0.60;99.90
13174;DHT22;6652;48.802;9.190;2023-03-01T04:40:58;0.60;99.90
13174;DHT22;6652;48.802;9.190;2023-03-01T04:43:25;0.70;99.90
13174;DHT22;6652;48.802;9.190;2023-03-01T04:45:52;1.10;99.90
13174;DHT22;6652;48.802;9.190;2023-03-01T04:48:19;0.70;99.90
13174;DHT22;6652;48.802;9.190;2023-03-01T04:50:46;0.70;99.90
13174;DHT22;6652;48.802;9.190;2023-03-01T04:53:13;0.70;99.90
13174;DHT22;6652;48.802;9.190;2023-03-01T04:55:39;0.70;99.90
13174;DHT22;6652;48.802;9.190;2023-03-01T04:58:08;0.80;99.90
13174;DHT22;6652;48.802;9.190;2023-03-01T05:00:35;0.80;99.90
13174;DHT22;6652;48.802;9.190;2023-03-01T05:03:02;0.80;99.90
13174;DHT22;6652;48.802;9.190;2023-03-01T05:05:31;0.80;99.90
13174;DHT22;6652;48.802;9.190;2023-03-01T05:07:59;0.80;99.90
13174;DHT22;6652;48.802;9.190;2023-03-01T05:10:28;0.90;99.90
13174;DHT22;6652;48.802;9.190;2023-03-01T05:12:55;0.80;99.90
13174;DHT22;6652;48.802;9.190;2023-03-01T05:15:25;0.80;99.90
13174;DHT22;6652;48.802;9.190;2023-03-01T05:17:53;0.90;99.90
13174;DHT22;6652;48.802;9.190;2023-03-01T05:20:21;0.80;99.90
13174;DHT22;6652;48.802;9.190;2023-03-01T05:22:49;0.80;99.90
13174;DHT22;6652;48.802;9.190;2023-03-01T05:25:16;0.80;99.90
13174;DHT22;6652;48.802;9.190;2023-03-01T05:27:43;0.80;99.90
13174;DHT22;6652;48.802;9.190;2023-03-01T05:30:11;0.80;99.90
13174;DHT22;6652;48.802;9.190;2023-03-01T05:32:44;0.80;99.90
13174;DHT22;6652;48.802;9.190;2023-03-01T05:35:12;0.80;99.90
13174;DHT22;6652;48.802;9.190;2023-03-01T05:37:43;0.80;99.90
13174;DHT22;6652;48.802;9.190;2023-03-01T05:40:12;0.80;99.90
13174;DHT22;6652;48.802;9.190;2023-03-01T05:42:42;0.80;99.90
13174;DHT22;6652;48.802;9.190;2023-03-01T05:45:09;0.70;99.90
13174;DHT22;6652;48.802;9.190;2023-03-01T05:47:38;0.80;99.90
13174;DHT22;6652;48.802;9.190;2023-03-01T05:50:07;0.80;99.90
13174;DHT22;6652;48.802;9.190;2023-03-01T05:52:34;0.80;99.90
13174;DHT22;6652;48.802;9.190;2023-03-01T05:55:01;0.70;99.90
13174;DHT22;6652;48.802;9.190;2023-03-01T05:57:28;0.70;99.90
13174;DHT22;6652;48.802;9.190;2023-03-01T05:59:55;0.70;99.90
13174;DHT22;6652;48.802;9.190;2023-03-01T06:02:22;0.70;99.90
13174;DHT22;6652;48.802;9.190;2023-03-01T06:04:49;1.10;99.90
13174;DHT22;6652;48.802;9.190;2023-03-01T06:07:17;0.80;99.90
13174;DHT22;6652;48.802;9.190;2023-03-01T06:09:44;0.70;99.90
13174;DHT22;6652;48.802;9.190;2023-03-01T06:12:11;0.80;99.90
13174;DHT22;6652;48.802;9.190;2023-03-01T06:14:37;0.60;99.90
13174;DHT22;6652;48.802;9.190;2023-03-01T06:17:04;1.10;99.90
13174;DHT22;6652;48.802;9.190;2023-03-01T06:19:31;0.70;99.90
13174;DHT22;6652;48.802;9.190;2023-03-01T06:21:58;1.30;99.90
13174;DHT22;6652;48.802;9.190;2023-03-01T06:24:26;1.00;99.90
13174;DHT22;6652;48.802;9.190;2023-03-01T06:26:54;1.10;99.90
13174;DHT22;6652;48.802;9.190;2023-03-01T06:32:40;1.10;99.90
13174;DHT22;6652;48.802;9.190;2023-03-01T06:35:09;1.00;99.90
13174;DHT22;6652;48.802;9.190;2023-03-01T06:37:36;0.90;99.90
13174;DHT22;6652;48.802;9.190;2023-03-01T06:40:05;0.90;99.90
13174;DHT22;6652;48.802;9.190;2023-03-01T06:42:34;0.80;99.90
13174;DHT22;6652;48.802;9.190;2023-03-01T06:45:00;0.80;99.90
13174;DHT22;6652;48.802;9.190;2023-03-01T06:47:27;0.90;99.90
13174;DHT22;6652;48.802;9.190;2023-03-01T06:49:54;1.10;99.90
13174;DHT22;6652;48.802;9.190;2023-03-01T06:52:21;1.60;99.90
13174;DHT22;6652;48.802;9.190;2023-03-01T06:54:47;2.50;99.90
13174;DHT22;6652;48.802;9.190;2023-03-01T06:57:16;3.50;99.90
13174;DHT22;6652;48.802;9.190;2023-03-01T06:59:43;4.30;99.90
13174;DHT22;6652;48.802;9.190;2023-03-01T07:02:10;6.50;99.90
13174;DHT22;6652;48.802;9.190;2023-03-01T07:04:37;5.90;99.90
13174;DHT22;6652;48.802;9.190;2023-03-01T07:07:05;6.30;98.50
13174;DHT22;6652;48.802;9.190;2023-03-01T07:09:32;6.90;97.70
13174;DHT22;6652;48.802;9.190;2023-03-01T07:11:59;7.30;96.20
13174;DHT22;6652;48.802;9.190;2023-03-01T07:14:27;7.70;95.50
13174;DHT22;6652;48.802;9.190;2023-03-01T07:16:54;7.90;94.10
13174;DHT22;6652;48.802;9.190;2023-03-01T07:19:22;8.10;93.70
13174;DHT22;6652;48.802;9.190;2023-03-01T07:21:49;8.50;92.90
13174;DHT22;6652;48.802;9.190;2023-03-01T07:24:16;8.50;91.60
13174;DHT22;6652;48.802;9.190;2023-03-01T07:26:42;8.90;91.80
13174;DHT22;6652;48.802;9.190;2023-03-01T07:29:10;8.80;90.80
13174;DHT22;6652;48.802;9.190;2023-03-01T07:31:38;8.70;90.40
13174;DHT22;6652;48.802;9.190;2023-03-01T07:34:05;9.20;90.70
13174;DHT22;6652;48.802;9.190;2023-03-01T07:36:32;9.60;88.80
13174;DHT22;6652;48.802;9.190;2023-03-01T07:38:58;9.60;87.40
13174;DHT22;6652;48.802;9.190;2023-03-01T07:41:27;10.00;85.40
13174;DHT22;6652;48.802;9.190;2023-03-01T07:43:54;10.40;84.10
13174;DHT22;6652;48.802;9.190;2023-03-01T07:46:21;10.50;82.60
13174;DHT22;6652;48.802;9.190;2023-03-01T07:48:49;11.00;82.30
13174;DHT22;6652;48.802;9.190;2023-03-01T07:51:16;11.40;80.40
13174;DHT22;6652;48.802;9.190;2023-03-01T07:53:45;12.10;80.20
13174;DHT22;6652;48.802;9.190;2023-03-01T07:56:14;12.30;76.50
13174;DHT22;6652;48.802;9.190;2023-03-01T07:58:43;12.60;75.50
13174;DHT22;6652;48.802;9.190;2023-03-01T08:01:13;13.00;73.10
13174;DHT22;6652;48.802;9.190;2023-03-01T08:03:40;13.30;72.30
13174;DHT22;6652;48.802;9.190;2023-03-01T08:06:10;13.10;69.20
13174;DHT22;6652;48.802;9.190;2023-03-01T08:08:40;12.60;68.90
13174;DHT22;6652;48.802;9.190;2023-03-01T08:11:10;12.50;70.30
13174;DHT22;6652;48.802;9.190;2023-03-01T08:13:37;12.60;69.80
13174;DHT22;6652;48.802;9.190;2023-03-01T08:16:05;12.60;69.50
13174;DHT22;6652;48.802;9.190;2023-03-01T08:18:33;12.00;69.00
13174;DHT22;6652;48.802;9.190;2023-03-01T08:21:03;12.20;70.40
13174;DHT22;6652;48.802;9.190;2023-03-01T08:23:32;12.70;69.30
13174;DHT22;6652;48.802;9.190;2023-03-01T08:26:04;12.70;68.50
13174;DHT22;6652;48.802;9.190;2023-03-01T08:28:32;12.40;68.40
13174;DHT22;6652;48.802;9.190;2023-03-01T08:30:59;12.30;68.40
13174;DHT22;6652;48.802;9.190;2023-03-01T08:33:26;12.30;68.50
13174;DHT22;6652;48.802;9.190;2023-03-01T08:36:02;12.60;68.50
13174;DHT22;6652;48.802;9.190;2023-03-01T08:38:29;13.00;67.70
13174;DHT22;6652;48.802;9.190;2023-03-01T08:40:59;13.40;67.30
13174;DHT22;6652;48.802;9.190;2023-03-01T08:43:26;13.00;65.70
13174;DHT22;6652;48.802;9.190;2023-03-01T08:45:53;12.80;66.10
13174;DHT22;6652;48.802;9.190;2023-03-01T08:48:19;13.00;66.70
13174;DHT22;6652;48.802;9.190;2023-03-01T08:50:46;12.90;65.70
13174;DHT22;6652;48.802;9.190;2023-03-01T08:53:13;13.10;65.80
13174;DHT22;6652;48.802;9.190;2023-03-01T08:55:40;13.40;65.80
13174;DHT22;6652;48.802;9.190;2023-03-01T08:58:08;13.50;65.00
13174;DHT22;6652;48.802;9.190;2023-03-01T09:00:35;14.30;64.50
13174;DHT22;6652;48.802;9.190;2023-03-01T09:03:01;15.10;63.80
13174;DHT22;6652;48.802;9.190;2023-03-01T09:05:31;15.70;62.00
13174;DHT22;6652;48.802;9.190;2023-03-01T09:07:57;15.70;59.50
13174;DHT22;6652;48.802;9.190;2023-03-01T09:10:24;15.70;59.80
13174;DHT22;6652;48.802;9.190;2023-03-01T09:12:51;15.90;59.50
13174;DHT22;6652;48.802;9.190;2023-03-01T09:15:19;15.80;58.70
13174;DHT22;6652;48.802;9.190;2023-03-01T09:17:46;15.40;58.60
13174;DHT22;6652;48.802;9.190;2023-03-01T09:20:13;15.30;59.20
13174;DHT22;6652;48.802;9.190;2023-03-01T09:22:40;15.60;60.00
13174;DHT22;6652;48.802;9.190;2023-03-01T09:25:07;16.00;59.10
13174;DHT22;6652;48.802;9.190;2023-03-01T09:27:35;16.60;58.20
13174;DHT22;6652;48.802;9.190;2023-03-01T09:30:02;16.80;57.20
13174;DHT22;6652;48.802;9.190;2023-03-01T09:32:31;16.80;56.50
13174;DHT22;6652;48.802;9.190;2023-03-01T09:34:58;16.70;56.10
13174;DHT22;6652;48.802;9.190;2023-03-01T09:37:30;16.60;56.90
13174;DHT22;6652;48.802;9.190;2023-03-01T09:39:58;16.70;56.10
13174;DHT22;6652;48.802;9.190;2023-03-01T09:42:25;16.60;56.10
13174;DHT22;6652;48.802;9.190;2023-03-01T09:44:56;16.60;56.00
13174;DHT22;6652;48.802;9.190;2023-03-01T09:47:27;16.20;56.00
13174;DHT22;6652;48.802;9.190;2023-03-01T09:50:02;15.80;56.40
13174;DHT22;6652;48.802;9.190;2023-03-01T09:52:36;15.80;56.50
13174;DHT22;6652;48.802;9.190;2023-03-01T09:55:10;16.00;56.60
13174;DHT22;6652;48.802;9.190;2023-03-01T09:57:39;16.50;56.20
13174;DHT22;6652;48.802;9.190;2023-03-01T10:00:22;16.50;55.80
13174;DHT22;6652;48.802;9.190;2023-03-01T10:02:57;16.50;56.30
13174;DHT22;6652;48.802;9.190;2023-03-01T10:05:41;16.70;56.70
13174;DHT22;6652;48.802;9.190;2023-03-01T10:08:26;16.20;55.70
13174;DHT22;6652;48.802;9.190;2023-03-01T10:10:56;16.50;56.30
13174;DHT22;6652;48.802;9.190;2023-03-01T10:13:27;16.40;55.90
13174;DHT22;6652;48.802;9.190;2023-03-01T10:15:57;16.60;56.40
13174;DHT22;6652;48.802;9.190;2023-03-01T10:18:26;16.90;55.40
13174;DHT22;6652;48.802;9.190;2023-03-01T10:20:58;16.40;54.70
13174;DHT22;6652;48.802;9.190;2023-03-01T10:23:26;16.10;55.40
13174;DHT22;6652;48.802;9.190;2023-03-01T10:26:09;15.40;55.30
13174;DHT22;6652;48.802;9.190;2023-03-01T10:28:46;14.80;55.90
13174;DHT22;6652;48.802;9.190;2023-03-01T10:31:15;14.70;56.70
13174;DHT22;6652;48.802;9.190;2023-03-01T10:33:44;14.50;56.80
13174;DHT22;6652;48.802;9.190;2023-03-01T10:36:14;14.50;57.20
13174;DHT22;6652;48.802;9.190;2023-03-01T10:38:49;14.40;57.40
13174;DHT22;6652;48.802;9.190;2023-03-01T10:41:18;14.80;57.60
13174;DHT22;6652;48.802;9.190;2023-03-01T10:43:46;15.00;56.90
13174;DHT22;6652;48.802;9.190;2023-03-01T10:46:23;14.90;56.80
13174;DHT22;6652;48.802;9.190;2023-03-01T10:49:06;14.70;57.20
13174;DHT22;6652;48.802;9.190;2023-03-01T10:51:35;14.60;57.10
13174;DHT22;6652;48.802;9.190;2023-03-01T10:54:03;14.40;57.30
13174;DHT22;6652;48.802;9.190;2023-03-01T10:56:46;13.20;57.50
13174;DHT22;6652;48.802;9.190;2023-03-01T10:59:22;11.40;59.90
13174;DHT22;6652;48.802;9.190;2023-03-01T11:02:14;10.20;63.10
13174;DHT22;6652;48.802;9.190;2023-03-01T11:04:57;9.50;67.70
13174;DHT22;6652;48.802;9.190;2023-03-01T11:07:26;9.40;69.00
13174;DHT22;6652;48.802;9.190;2023-03-01T11:09:53;9.20;69.30
13174;DHT22;6652;48.802;9.190;2023-03-01T11:12:21;8.70;70.10
13174;DHT22;6652;48.802;9.190;2023-03-01T11:14:49;8.40;71.10
13174;DHT22;6652;48.802;9.190;2023-03-01T11:17:21;8.30;72.70
13174;DHT22;6652;48.802;9.190;2023-03-01T11:20:00;8.30;73.90
13174;DHT22;6652;48.802;9.190;2023-03-01T11:22:28;8.20;73.00
13174;DHT22;6652;48.802;9.190;2023-03-01T11:24:56;8.10;72.80
13174;DHT22;6652;48.802;9.190;2023-03-01T11:27:26;8.40;73.40
13174;DHT22;6652;48.802;9.190;2023-03-01T11:29:57;8.50;73.10
13174;DHT22;6652;48.802;9.190;2023-03-01T11:32:29;8.50;72.80
13174;DHT22;6652;48.802;9.190;2023-03-01T11:35:01;8.30;72.90
13174;DHT22;6652;48.802;9.190;2023-03-01T11:37:37;8.40;73.60
13174;DHT22;6652;48.802;9.190;2023-03-01T11:40:13;8.50;73.60
13174;DHT22;6652;48.802;9.190;2023-03-01T11:42:50;8.70;73.60
13174;DHT22;6652;48.802;9.190;2023-03-01T11:45:19;8.80;73.00
13174;DHT22;6652;48.802;9.190;2023-03-01T11:48:14;8.50;72.90
13174;DHT22;6652;48.802;9.190;2023-03-01T11:50:47;8.40;73.70
13174;DHT22;6652;48.802;9.190;2023-03-01T11:53:34;8.40;73.60
13174;DHT22;6652;48.802;9.190;2023-03-01T11:56:13;8.40;73.60
13174;DHT22;6652;48.802;9.190;2023-03-01T11:58:59;8.20;73.90
13174;DHT22;6652;48.802;9.190;2023-03-01T12:01:49;8.10;74.90
13174;DHT22;6652;48.802;9.190;2023-03-01T12:04:36;8.20;75.50
13174;DHT22;6652;48.802;9.190;2023-03-01T12:07:11;8.30;75.60
13174;DHT22;6652;48.802;9.190;2023-03-01T12:09:53;8.40;75.40
13174;DHT22;6652;48.802;9.190;2023-03-01T12:12:30;8.40;76.60
13174;DHT22;6652;48.802;9.190;2023-03-01T12:18:04;8.30;75.70
13174;DHT22;6652;48.802;9.190;2023-03-01T12:20:36;8.30;75.80
13174;DHT22;6652;48.802;9.190;2023-03-01T12:23:29;8.40;75.20
13174;DHT22;6652;48.802;9.190;2023-03-01T12:26:08;8.40;75.70
13174;DHT22;6652;48.802;9.190;2023-03-01T12:28:56;8.50;75.60
13174;DHT22;6652;48.802;9.190;2023-03-01T12:31:49;8.40;75.30
13174;DHT22;6652;48.802;9.190;2023-03-01T12:34:40;8.50;76.00
13174;DHT22;6652;48.802;9.190;2023-03-01T12:37:21;8.50;75.90
13174;DHT22;6652;48.802;9.190;2023-03-01T12:39:58;8.40;75.50
13174;DHT22;6652;48.802;9.190;2023-03-01T12:42:31;8.40;75.90
13174;DHT22;6652;48.802;9.190;2023-03-01T12:45:21;8.50;76.50
13174;DHT22;6652;48.802;9.190;2023-03-01T12:48:02;8.70;75.80
13174;DHT22;6652;48.802;9.190;2023-03-01T12:50:39;8.60;75.50
13174;DHT22;6652;48.802;9.190;2023-03-01T12:53:20;8.60;75.30
13174;DHT22;6652;48.802;9.190;2023-03-01T12:55:49;8.70;77.10
13174;DHT22;6652;48.802;9.190;2023-03-01T12:58:24;9.00;76.10
13174;DHT22;6652;48.802;9.190;2023-03-01T13:01:03;9.00;75.50
13174;DHT22;6652;48.802;9.190;2023-03-01T13:03:38;9.00;75.30
13174;DHT22;6652;48.802;9.190;2023-03-01T13:06:12;8.80;75.40
13174;DHT22;6652;48.802;9.190;2023-03-01T13:08:46;8.70;75.80
13174;DHT22;6652;48.802;9.190;2023-03-01T13:11:17;8.60;75.70
13174;DHT22;6652;48.802;9.190;2023-03-01T13:13:46;8.60;76.10
13174;DHT22;6652;48.802;9.190;2023-03-01T13:19:07;8.70;76.80
13174;DHT22;6652;48.802;9.190;2023-03-01T13:21:35;8.70;76.60
13174;DHT22;6652;48.802;9.190;2023-03-01T13:24:01;8.80;76.90
13174;DHT22;6652;48.802;9.190;2023-03-01T13:26:28;8.80;76.60
13174;DHT22;6652;48.802;9.190;2023-03-01T13:28:57;8.90;76.50
13174;DHT22;6652;48.802;9.190;2023-03-01T13:31:59;9.10;77.20
13174;DHT22;6652;48.802;9.190;2023-03-01T13:34:58;9.20;75.80
13174;DHT22;6652;48.802;9.190;2023-03-01T13:37:36;9.20;75.90
13174;DHT22;6652;48.802;9.190;2023-03-01T13:43:28;9.10;75.70
13174;DHT22;6652;48.802;9.190;2023-03-01T13:45:59;9.00;75.90
13174;DHT22;6652;48.802;9.190;2023-03-01T13:48:28;8.90;76.90
13174;DHT22;6652;48.802;9.190;2023-03-01T13:50:58;8.90;76.40
13174;DHT22;6652;48.802;9.190;2023-03-01T13:53:29;8.80;76.40
13174;DHT22;6652;48.802;9.190;2023-03-01T13:56:00;8.80;77.10
13174;DHT22;6652;48.802;9.190;2023-03-01T13:58:29;8.80;77.10
13174;DHT22;6652;48.802;9.190;2023-03-01T14:01:00;8.60;77.00
13174;DHT22;6652;48.802;9.190;2023-03-01T14:03:29;8.50;77.40
13174;DHT22;6652;48.802;9.190;2023-03-01T14:06:01;8.40;77.80
13174;DHT22;6652;48.802;9.190;2023-03-01T14:08:30;8.30;78.30
13174;DHT22;6652;48.802;9.190;2023-03-01T14:11:34;8.20;78.40
13174;DHT22;6652;48.802;9.190;2023-03-01T14:14:16;8.20;79.10
13174;DHT22;6652;48.802;9.190;2023-03-01T14:16:54;8.20;79.20
13174;DHT22;6652;48.802;9.190;2023-03-01T14:19:24;8.30;79.40
13174;DHT22;6652;48.802;9.190;2023-03-01T14:21:59;8.30;79.50
13174;DHT22;6652;48.802;9.190;2023-03-01T14:24:29;8.30;79.60
13174;DHT22;6652;48.802;9.190;2023-03-01T14:26:58;8.30;79.40
13174;DHT22;6652;48.802;9.190;2023-03-01T14:29:33;8.30;79.80
13174;DHT22;6652;48.802;9.190;2023-03-01T14:32:09;8.40;80.10
13174;DHT22;6652;48.802;9.190;2023-03-01T14:34:36;8.30;80.10
13174;DHT22;6652;48.802;9.190;2023-03-01T14:37:18;8.20;80.30
13174;DHT22;6652;48.802;9.190;2023-03-01T14:39:46;8.10;80.30
13174;DHT22;6652;48.802;9.190;2023-03-01T14:42:13;8.10;80.60
13174;DHT22;6652;48.802;9.190;2023-03-01T14:44:42;8.10;80.90
13174;DHT22;6652;48.802;9.190;2023-03-01T14:47:15;8.30;81.00
13174;DHT22;6652;48.802;9.190;2023-03-01T14:49:43;8.00;80.60
13174;DHT22;6652;48.802;9.190;2023-03-01T14:52:19;7.90;81.10
13174;DHT22;6652;48.802;9.190;2023-03-01T14:54:48;8.10;81.80
13174;DHT22;6652;48.802;9.190;2023-03-01T14:57:18;8.10;81.60
13174;DHT22;6652;48.802;9.190;2023-03-01T14:59:47;8.10;81.20
13174;DHT22;6652;48.802;9.190;2023-03-01T15:02:22;8.00;81.10
13174;DHT22;6652;48.802;9.190;2023-03-01T15:04:51;8.00;81.40
13174;DHT22;6652;48.802;9.190;2023-03-01T15:07:21;8.00;81.70
13174;DHT22;6652;48.802;9.190;2023-03-01T15:09:48;8.00;81.90
13174;DHT22;6652;48.802;9.190;2023-03-01T15:12:33;7.90;81.80
13174;DHT22;6652;48.802;9.190;2023-03-01T15:15:00;7.90;82.00
13174;DHT22;6652;48.802;9.190;2023-03-01T15:17:32;7.80;82.40
13174;DHT22;6652;48.802;9.190;2023-03-01T15:20:00;7.70;82.20
13174;DHT22;6652;48.802;9.190;2023-03-01T15:22:29;7.70;82.40
13174;DHT22;6652;48.802;9.190;2023-03-01T15:24:56;7.70;82.70
13174;DHT22;6652;48.802;9.190;2023-03-01T15:27:24;7.70;82.90
13174;DHT22;6652;48.802;9.190;2023-03-01T15:29:54;7.70;83.20
13174;DHT22;6652;48.802;9.190;2023-03-01T15:32:28;7.70;83.00
13174;DHT22;6652;48.802;9.190;2023-03-01T15:34:58;7.70;83.00
13174;DHT22;6652;48.802;9.190;2023-03-01T15:37:39;7.60;83.00
13174;DHT22;6652;48.802;9.190;2023-03-01T15:40:22;7.60;83.30
13174;DHT22;6652;48.802;9.190;2023-03-01T15:42:56;7.60;83.30
13174;DHT22;6652;48.802;9.190;2023-03-01T15:45:26;7.60;83.30
13174;DHT22;6652;48.802;9.190;2023-03-01T15:47:55;7.60;83.60
13174;DHT22;6652;48.802;9.190;2023-03-01T15:50:27;7.50;82.80
13174;DHT22;6652;48.802;9.190;2023-03-01T15:52:56;7.60;82.80
13174;DHT22;6652;48.802;9.190;2023-03-01T15:55:25;7.40;82.60
13174;DHT22;6652;48.802;9.190;2023-03-01T15:57:59;7.40;82.70
13174;DHT22;6652;48.802;9.190;2023-03-01T16:00:27;7.40;82.80
13174;DHT22;6652;48.802;9.190;2023-03-01T16:02:54;7.30;82.90
13174;DHT22;6652;48.802;9.190;2023-03-01T16:05:23;7.30;83.00
13174;DHT22;6652;48.802;9.190;2023-03-01T16:07:52;7.30;83.10
13174;DHT22;6652;48.802;9.190;2023-03-01T16:10:19;7.30;83.10
13174;DHT22;6652;48.802;9.190;2023-03-01T16:12:46;7.30;83.40
13174;DHT22;6652;48.802;9.190;2023-03-01T16:15:18;7.20;82.80
13174;DHT22;6652;48.802;9.190;2023-03-01T16:17:45;7.20;82.80
13174;DHT22;6652;48.802;9.190;2023-03-01T16:22:53;7.10;83.30
13174;DHT22;6652;48.802;9.190;2023-03-01T16:25:20;7.20;83.70
13174;DHT22;6652;48.802;9.190;2023-03-01T16:27:48;7.10;83.60
13174;DHT22;6652;48.802;9.190;2023-03-01T16:30:18;7.10;84.10
13174;DHT22;6652;48.802;9.190;2023-03-01T16:32:46;7.00;84.10